createdAt,value
2019-05-03T00:01:44.858Z,15.40
2019-05-03T00:04:16.024Z,17.00
2019-05-03T00:06:47.620Z,16.13
2019-05-03T00:09:17.990Z,17.10
2019-05-03T00:11:48.174Z,16.07
2019-05-03T00:14:18.642Z,15.50
2019-05-03T00:16:52.094Z,13.90
2019-05-03T00:19:22.186Z,15.17
2019-05-03T00:21:52.700Z,14.27
2019-05-03T00:24:22.991Z,15.00
2019-05-03T00:26:53.268Z,15.90
2019-05-03T00:29:23.629Z,15.10
2019-05-03T00:31:54.401Z,15.07
2019-05-03T00:34:29.590Z,16.17
2019-05-03T00:37:01.847Z,14.73
2019-05-03T00:39:37.096Z,14.97
2019-05-03T00:42:07.483Z,15.50
2019-05-03T00:44:38.171Z,16.40
2019-05-03T00:47:08.339Z,16.10
2019-05-03T00:49:38.524Z,15.20
2019-05-03T00:52:08.828Z,15.77
2019-05-03T00:54:38.995Z,16.40
2019-05-03T00:57:09.286Z,15.50
2019-05-03T00:59:39.459Z,15.63
2019-05-03T01:02:11.652Z,15.33
2019-05-03T01:04:42.691Z,15.43
2019-05-03T01:07:12.897Z,15.97
2019-05-03T01:09:43.154Z,17.50
2019-05-03T01:12:13.432Z,16.20
2019-05-03T01:14:45.344Z,15.30
2019-05-03T01:17:15.610Z,15.60
2019-05-03T01:19:45.875Z,16.03
2019-05-03T01:22:16.196Z,17.10
2019-05-03T01:24:46.476Z,16.43
2019-05-03T01:27:16.983Z,15.03
2019-05-03T01:29:47.332Z,16.80
2019-05-03T01:32:17.565Z,15.93
2019-05-03T01:34:47.919Z,16.17
2019-05-03T01:37:18.099Z,15.50
2019-05-03T01:39:48.260Z,17.07
2019-05-03T01:42:18.579Z,17.37
2019-05-03T01:44:48.786Z,15.37
2019-05-03T01:47:26.329Z,16.50
2019-05-03T01:50:07.358Z,16.83
2019-05-03T01:52:41.835Z,17.80
2019-05-03T01:55:15.521Z,17.40
2019-05-03T01:57:44.215Z,15.87
2019-05-03T02:00:19.481Z,18.03
2019-05-03T02:02:58.169Z,16.80
2019-05-03T02:05:47.443Z,17.03
2019-05-03T02:08:17.916Z,16.30
2019-05-03T02:10:48.261Z,15.60
2019-05-03T02:13:18.524Z,17.57
2019-05-03T02:15:48.675Z,16.60
2019-05-03T02:18:18.850Z,16.80
2019-05-03T02:20:49.122Z,16.97
2019-05-03T02:23:19.378Z,17.20
2019-05-03T02:25:55.971Z,15.90
2019-05-03T02:28:22.029Z,18.20
2019-05-03T02:30:53.453Z,18.33
2019-05-03T02:33:24.065Z,17.93
2019-05-03T02:35:54.377Z,16.80
2019-05-03T02:38:25.189Z,17.33
2019-05-03T02:40:55.384Z,15.87
2019-05-03T02:43:39.414Z,16.50
2019-05-03T02:46:31.552Z,17.13
2019-05-03T02:49:39.879Z,17.73
2019-05-03T02:52:29.220Z,17.00
2019-05-03T02:54:59.411Z,16.60
2019-05-03T02:57:29.617Z,16.63
2019-05-03T03:00:00.280Z,16.20
2019-05-03T03:02:30.751Z,19.00
2019-05-03T03:05:01.136Z,16.83
2019-05-03T03:07:32.350Z,18.10
2019-05-03T03:10:05.142Z,17.33
2019-05-03T03:12:35.601Z,17.40
2019-05-03T03:15:06.420Z,16.80
2019-05-03T03:17:37.747Z,17.23
2019-05-03T03:20:09.132Z,17.67
2019-05-03T03:22:45.794Z,16.90
2019-05-03T03:25:25.916Z,14.73
2019-05-03T03:28:00.045Z,15.80
2019-05-03T03:31:11.312Z,17.67
2019-05-03T03:33:41.413Z,15.83
2019-05-03T03:36:37.798Z,16.00
2019-05-03T03:38:45.765Z,16.30
2019-05-03T03:41:16.605Z,15.20
2019-05-03T03:43:46.989Z,16.27
2019-05-03T03:46:18.012Z,16.93
2019-05-03T03:48:48.358Z,16.53
2019-05-03T03:51:20.698Z,16.07
2019-05-03T03:53:55.470Z,16.20
2019-05-03T03:56:26.868Z,16.45
2019-05-03T03:58:57.405Z,16.40
2019-05-03T04:01:28.183Z,15.90
2019-05-03T04:03:58.404Z,15.47
2019-05-03T04:06:46.308Z,15.20
2019-05-03T04:09:16.190Z,16.17
2019-05-03T04:11:47.243Z,16.50
2019-05-03T04:14:25.285Z,17.50
2019-05-03T04:17:15.078Z,16.50
2019-05-03T04:19:46.372Z,15.50
2019-05-03T04:22:16.716Z,15.57
2019-05-03T04:24:46.937Z,14.77
2019-05-03T04:27:23.034Z,16.30
2019-05-03T04:29:49.834Z,17.77
2019-05-03T04:32:20.095Z,16.10
2019-05-03T04:34:50.430Z,16.83
2019-05-03T04:37:20.675Z,16.43
2019-05-03T04:39:51.052Z,15.33
2019-05-03T04:42:21.141Z,17.30
2019-05-03T04:44:51.355Z,17.47
2019-05-03T04:47:21.593Z,14.63
2019-05-03T04:49:51.738Z,18.50
2019-05-03T04:52:21.871Z,16.65
2019-05-03T04:54:56.922Z,16.30
2019-05-03T04:57:40.023Z,15.97
2019-05-03T05:00:00.294Z,18.57
2019-05-03T05:02:30.586Z,17.52
2019-05-03T05:05:00.725Z,17.20
2019-05-03T05:07:30.883Z,17.27
2019-05-03T05:10:01.160Z,16.20
2019-05-03T05:12:31.503Z,16.90
2019-05-03T05:15:02.074Z,16.23
2019-05-03T05:17:57.623Z,15.10
2019-05-03T05:20:42.494Z,17.10
2019-05-03T05:23:14.669Z,17.80
2019-05-03T05:25:51.076Z,18.23
2019-05-03T05:28:52.576Z,18.60
2019-05-03T05:31:23.011Z,19.80
2019-05-03T05:33:54.540Z,23.33
2019-05-03T05:36:24.836Z,23.80
2019-05-03T05:38:55.429Z,21.63
2019-05-03T05:41:25.919Z,21.13
2019-05-03T05:43:56.408Z,18.77
2019-05-03T05:46:31.117Z,22.17
2019-05-03T05:49:04.288Z,22.10
2019-05-03T05:51:35.326Z,21.23
2019-05-03T05:54:05.980Z,21.57
2019-05-03T05:56:47.790Z,19.50
2019-05-03T05:59:46.091Z,20.87
2019-05-03T06:02:18.313Z,21.30
2019-05-03T06:04:48.690Z,19.93
2019-05-03T06:07:47.098Z,18.60
2019-05-03T06:10:25.942Z,18.43
2019-05-03T06:13:05.429Z,17.15
2019-05-03T06:15:54.818Z,17.63
2019-05-03T06:18:30.819Z,16.57
2019-05-03T06:21:11.416Z,18.00
2019-05-03T06:23:47.867Z,16.20
2019-05-03T06:26:35.637Z,16.10
2019-05-03T06:29:07.769Z,14.37
2019-05-03T06:31:55.616Z,34.47
2019-05-03T06:34:26.684Z,19.57
2019-05-03T06:36:58.872Z,16.33
2019-05-03T06:39:30.119Z,16.87
2019-05-03T06:42:00.446Z,16.07
2019-05-03T06:44:30.791Z,16.73
2019-05-03T06:47:06.040Z,15.03
2019-05-03T06:49:34.569Z,14.83
2019-05-03T06:52:05.938Z,15.57
2019-05-03T06:54:37.884Z,15.30
2019-05-03T06:57:10.386Z,20.27
2019-05-03T06:59:46.907Z,14.47
2019-05-03T07:02:45.432Z,14.07
2019-05-03T07:05:26.041Z,14.33
2019-05-03T07:08:01.401Z,14.67
2019-05-03T07:10:41.054Z,14.75
2019-05-03T07:13:11.472Z,28.10
2019-05-03T07:15:41.912Z,16.63
2019-05-03T07:18:12.183Z,13.30
2019-05-03T07:20:46.252Z,15.20
2019-05-03T07:23:16.637Z,15.18
2019-05-03T07:25:46.958Z,14.90
2019-05-03T07:28:18.182Z,15.37
2019-05-03T07:30:48.373Z,17.40
2019-05-03T07:33:27.783Z,12.87
2019-05-03T07:35:58.162Z,12.60
2019-05-03T07:38:28.463Z,11.75
2019-05-03T07:40:59.859Z,11.47
2019-05-03T07:43:30.030Z,11.30
2019-05-03T07:46:00.682Z,10.00
2019-05-03T07:48:31.061Z,9.80
2019-05-03T07:51:02.122Z,9.88
2019-05-03T07:53:34.903Z,17.25
2019-05-03T07:56:11.418Z,8.07
2019-05-03T07:58:48.882Z,8.50
2019-05-03T08:01:25.134Z,8.10
2019-05-03T08:03:55.782Z,7.57
2019-05-03T08:06:26.077Z,7.40
2019-05-03T08:08:56.536Z,7.50
2019-05-03T08:11:26.777Z,8.07
2019-05-03T08:13:57.384Z,7.93
2019-05-03T08:16:27.856Z,8.03
2019-05-03T08:18:58.227Z,8.83
2019-05-03T08:21:28.516Z,9.60
2019-05-03T08:23:59.236Z,10.00
2019-05-03T08:26:29.662Z,10.50
2019-05-03T08:29:12.670Z,10.50
2019-05-03T08:31:49.620Z,10.67
2019-05-03T08:34:41.807Z,10.07
2019-05-03T08:37:18.068Z,9.90
2019-05-03T08:39:48.279Z,9.80
2019-05-03T08:42:25.226Z,11.33
2019-05-03T08:44:55.531Z,10.20
2019-05-03T08:47:25.998Z,10.03
2019-05-03T08:49:56.334Z,9.60
2019-05-03T08:52:26.566Z,9.90
2019-05-03T08:54:57.171Z,10.65
2019-05-03T08:57:27.600Z,7.73
2019-05-03T08:59:57.686Z,8.30
2019-05-03T09:02:28.291Z,8.60
2019-05-03T09:04:58.979Z,7.47
2019-05-03T09:07:29.325Z,7.50
2019-05-03T09:10:24.988Z,7.80
2019-05-03T09:13:06.791Z,8.07
2019-05-03T09:15:37.627Z,7.40
2019-05-03T09:18:08.169Z,7.70
2019-05-03T09:20:38.556Z,7.70
2019-05-03T09:23:08.741Z,8.03
2019-05-03T09:25:39.051Z,8.10
2019-05-03T09:28:09.588Z,7.77
2019-05-03T09:30:40.077Z,7.33
2019-05-03T09:33:10.529Z,7.00
2019-05-03T09:35:40.820Z,7.80
2019-05-03T09:38:11.222Z,7.70
2019-05-03T09:40:41.680Z,8.13
2019-05-03T09:43:15.095Z,7.10
2019-05-03T09:45:45.653Z,6.53
2019-05-03T09:48:16.304Z,6.60
2019-05-03T09:50:46.538Z,6.70
2019-05-03T09:53:18.585Z,7.90
2019-05-03T09:55:48.848Z,7.90
2019-05-03T09:58:19.292Z,8.20
2019-05-03T10:00:50.175Z,7.53
2019-05-03T10:03:20.527Z,6.87
2019-05-03T10:05:50.808Z,7.33
2019-05-03T10:08:20.982Z,8.07
2019-05-03T10:11:08.891Z,6.80
2019-05-03T10:13:41.845Z,6.13
2019-05-03T10:16:11.321Z,5.67
2019-05-03T10:18:41.945Z,6.40
2019-05-03T10:21:14.662Z,7.33
2019-05-03T10:23:45.249Z,5.93
2019-05-03T10:26:15.815Z,5.57
2019-05-03T10:28:46.362Z,5.20
2019-05-03T10:31:17.024Z,5.00
2019-05-03T10:33:55.997Z,5.70
2019-05-03T10:36:26.298Z,5.30
2019-05-03T10:38:56.559Z,5.10
2019-05-03T10:41:26.881Z,4.93
2019-05-03T10:43:57.183Z,5.20
2019-05-03T10:46:28.126Z,6.30
2019-05-03T10:48:58.519Z,5.97
2019-05-03T10:51:31.095Z,6.47
2019-05-03T10:54:01.488Z,6.27
2019-05-03T10:56:47.192Z,6.47
2019-05-03T10:59:18.127Z,5.90
2019-05-03T11:02:07.846Z,6.47
2019-05-03T11:04:38.403Z,6.13
2019-05-03T11:07:08.592Z,6.57
2019-05-03T11:09:48.840Z,6.87
2019-05-03T11:12:14.748Z,6.10
2019-05-03T11:14:45.593Z,6.90
2019-05-03T11:17:16.100Z,6.23
2019-05-03T11:19:46.578Z,7.37
2019-05-03T11:22:16.907Z,6.07
2019-05-03T11:24:47.570Z,5.90
2019-05-03T11:27:24.707Z,7.13
2019-05-03T11:29:59.278Z,5.77
2019-05-03T11:32:41.603Z,6.30
2019-05-03T11:35:26.795Z,6.27
2019-05-03T11:38:19.642Z,6.43
2019-05-03T11:40:51.415Z,6.43
2019-05-03T11:43:24.724Z,5.27
2019-05-03T11:45:55.616Z,5.97
2019-05-03T11:48:26.101Z,5.90
2019-05-03T11:50:59.095Z,5.70
2019-05-03T11:53:29.369Z,6.07
2019-05-03T11:56:00.055Z,6.33
2019-05-03T11:58:30.619Z,5.60
2019-05-03T12:01:29.423Z,5.80
2019-05-03T12:04:05.055Z,4.90
2019-05-03T12:06:36.819Z,4.47
2019-05-03T12:09:09.266Z,4.20
2019-05-03T12:11:40.528Z,4.30
2019-05-03T12:14:11.644Z,4.10
2019-05-03T12:19:30.433Z,3.90
2019-05-03T12:21:55.605Z,3.73
2019-05-03T12:24:27.098Z,4.67
2019-05-03T12:26:58.563Z,5.63
2019-05-03T12:29:29.450Z,5.97
2019-05-03T12:32:00.025Z,4.83
2019-05-03T12:34:30.862Z,5.40
2019-05-03T12:37:01.888Z,6.20
2019-05-03T12:39:35.892Z,6.07
2019-05-03T12:42:05.939Z,4.93
2019-05-03T12:44:36.578Z,5.57
2019-05-03T12:47:08.166Z,5.30
2019-05-03T12:49:39.041Z,5.20
2019-05-03T12:52:10.762Z,5.83
2019-05-03T12:54:42.356Z,4.73
2019-05-03T12:57:12.945Z,4.53
2019-05-03T13:00:01.357Z,4.80
2019-05-03T13:02:41.948Z,4.77
2019-05-03T13:05:12.361Z,4.37
2019-05-03T13:07:50.311Z,4.70
2019-05-03T13:10:23.265Z,3.60
2019-05-03T13:12:53.498Z,3.70
2019-05-03T13:15:24.553Z,4.30
2019-05-03T13:17:55.461Z,4.53
2019-05-03T13:20:26.134Z,4.93
2019-05-03T13:22:56.770Z,4.93
2019-05-03T13:25:27.581Z,4.80
2019-05-03T13:27:57.992Z,4.40
2019-05-03T13:30:28.472Z,4.90
2019-05-03T13:32:58.906Z,5.10
2019-05-03T13:35:29.321Z,5.23
2019-05-03T13:37:59.777Z,5.17
2019-05-03T13:40:30.829Z,4.85
2019-05-03T13:43:03.755Z,4.73
2019-05-03T13:45:35.376Z,5.07
2019-05-03T13:48:05.284Z,4.20
2019-05-03T13:50:35.645Z,4.80
2019-05-03T13:53:06.218Z,4.43
2019-05-03T13:55:36.542Z,4.30
2019-05-03T13:58:06.769Z,3.93
2019-05-03T14:00:37.134Z,4.30
2019-05-03T14:03:07.500Z,4.67
2019-05-03T14:05:38.074Z,5.10
2019-05-03T14:08:08.522Z,4.57
2019-05-03T14:10:38.827Z,4.03
2019-05-03T14:13:09.259Z,5.00
2019-05-03T14:15:39.865Z,4.17
2019-05-03T14:18:10.379Z,4.60
2019-05-03T14:21:05.713Z,4.00
2019-05-03T14:23:54.005Z,4.65
2019-05-03T14:26:24.627Z,3.93
2019-05-03T14:28:56.382Z,4.50
2019-05-03T14:31:26.903Z,3.53
2019-05-03T14:33:57.331Z,3.90
2019-05-03T14:36:27.826Z,4.00
2019-05-03T14:38:58.609Z,4.60
2019-05-03T14:41:28.956Z,4.50
2019-05-03T14:43:59.288Z,4.70
2019-05-03T14:46:33.174Z,4.40
2019-05-03T14:49:01.636Z,4.30
2019-05-03T14:51:32.008Z,4.73
2019-05-03T14:54:02.637Z,4.65
2019-05-03T14:56:51.981Z,4.77
2019-05-03T14:59:59.524Z,4.90
2019-05-03T15:02:55.402Z,4.95
2019-05-03T15:05:25.454Z,4.63
2019-05-03T15:07:56.027Z,5.77
2019-05-03T15:10:26.838Z,4.80
2019-05-03T15:12:58.935Z,4.30
2019-05-03T15:15:29.184Z,4.50
2019-05-03T15:17:59.490Z,4.60
2019-05-03T15:20:29.869Z,4.40
2019-05-03T15:23:00.520Z,6.28
2019-05-03T15:25:31.127Z,7.20
2019-05-03T15:28:07.702Z,4.70
2019-05-03T15:30:38.373Z,4.50
2019-05-03T15:33:08.668Z,4.90
2019-05-03T15:35:39.053Z,5.20
2019-05-03T15:38:09.539Z,4.77
2019-05-03T15:40:40.135Z,4.40
2019-05-03T15:43:34.658Z,4.40
2019-05-03T15:46:20.798Z,4.53
2019-05-03T15:48:55.101Z,3.97
2019-05-03T15:51:25.699Z,4.03
2019-05-03T15:53:56.145Z,4.00
2019-05-03T15:56:26.482Z,4.97
2019-05-03T15:58:57.248Z,5.00
2019-05-03T16:01:28.627Z,3.47
2019-05-03T16:03:58.966Z,4.30
2019-05-03T16:06:29.612Z,4.67
2019-05-03T16:09:00.175Z,5.27
2019-05-03T16:11:30.553Z,5.10
2019-05-03T16:14:07.680Z,4.67
2019-05-03T16:16:38.294Z,4.23
2019-05-03T16:19:08.738Z,4.33
2019-05-03T16:21:39.756Z,4.67
2019-05-03T16:24:10.088Z,5.60
2019-05-03T16:26:59.363Z,4.23
2019-05-03T16:29:30.016Z,4.50
2019-05-03T16:32:00.373Z,4.10
2019-05-03T16:34:30.999Z,3.97
2019-05-03T16:37:01.458Z,3.20
2019-05-03T16:39:32.022Z,3.90
2019-05-03T16:42:04.232Z,4.00
2019-05-03T16:44:35.133Z,4.10
2019-05-03T16:47:07.281Z,4.77
2019-05-03T16:49:38.534Z,4.40
2019-05-03T16:52:08.841Z,4.47
2019-05-03T16:54:39.786Z,3.50
2019-05-03T16:57:10.458Z,4.63
2019-05-03T16:59:40.965Z,3.87
2019-05-03T17:02:11.431Z,4.30
2019-05-03T17:05:05.161Z,5.30
2019-05-03T17:07:46.533Z,5.20
2019-05-03T17:10:26.883Z,3.30
2019-05-03T17:13:06.086Z,3.40
2019-05-03T17:15:36.613Z,2.23
2019-05-03T17:18:07.910Z,2.10
2019-05-03T17:20:39.391Z,5.10
2019-05-03T17:23:09.724Z,1.83
2019-05-03T17:25:40.541Z,2.20
2019-05-03T17:28:10.994Z,2.40
2019-05-03T17:30:41.270Z,2.70
2019-05-03T17:33:11.480Z,3.10
2019-05-03T17:35:42.089Z,3.77
2019-05-03T17:38:12.433Z,2.83
2019-05-03T17:41:10.823Z,3.00
2019-05-03T17:43:51.024Z,2.70
2019-05-03T17:46:21.461Z,3.10
2019-05-03T17:48:54.693Z,3.13
2019-05-03T17:51:43.014Z,3.10
2019-05-03T17:54:35.737Z,3.70
2019-05-03T17:57:09.960Z,3.57
2019-05-03T17:59:44.563Z,3.80
2019-05-03T18:02:44.981Z,3.23
2019-05-03T18:05:25.003Z,3.13
2019-05-03T18:08:13.024Z,3.33
2019-05-03T18:10:47.665Z,3.10
2019-05-03T18:13:18.152Z,2.73
2019-05-03T18:15:48.568Z,15.93
2019-05-03T18:18:18.892Z,3.23
2019-05-03T18:20:49.337Z,3.37
2019-05-03T18:23:19.977Z,2.73
2019-05-03T18:25:50.908Z,2.80
2019-05-03T18:28:21.322Z,3.50
2019-05-03T18:30:51.863Z,3.30
2019-05-03T18:33:24.582Z,3.70
2019-05-03T18:35:55.139Z,3.30
2019-05-03T18:38:25.768Z,3.53
2019-05-03T18:40:56.437Z,3.30
2019-05-03T18:43:36.082Z,2.70
2019-05-03T18:46:34.634Z,3.43
2019-05-03T18:49:05.211Z,3.37
2019-05-03T18:51:35.808Z,2.97
2019-05-03T18:54:10.108Z,3.43
2019-05-03T18:56:40.629Z,3.37
2019-05-03T18:59:11.518Z,3.03
2019-05-03T19:01:42.403Z,3.20
2019-05-03T19:04:37.875Z,2.93
2019-05-03T19:07:14.954Z,2.87
2019-05-03T19:10:19.904Z,3.70
2019-05-03T19:12:57.529Z,4.10
2019-05-03T19:15:29.819Z,4.20
2019-05-03T19:18:22.186Z,4.20
2019-05-03T19:20:54.971Z,7.10
2019-05-03T19:23:25.097Z,4.95
2019-05-03T19:25:55.649Z,4.70
2019-05-03T19:28:26.064Z,5.20
2019-05-03T19:30:58.018Z,4.65
2019-05-03T19:33:28.639Z,4.80
2019-05-03T19:36:00.360Z,6.00
2019-05-03T19:38:30.870Z,5.30
2019-05-03T19:41:01.424Z,5.13
2019-05-03T19:43:32.159Z,4.80
2019-05-03T19:46:04.622Z,4.55
2019-05-03T19:48:34.946Z,4.97
2019-05-03T19:51:06.709Z,4.77
2019-05-03T19:53:56.313Z,5.13
2019-05-03T19:56:27.428Z,4.70
2019-05-03T19:59:04.811Z,5.50
2019-05-03T20:01:52.673Z,5.63
2019-05-03T20:04:42.069Z,4.93
2019-05-03T20:07:30.364Z,4.93
2019-05-03T20:10:00.878Z,5.07
2019-05-03T20:12:31.377Z,5.40
2019-05-03T20:15:02.398Z,5.03
2019-05-03T20:17:34.601Z,4.40
2019-05-03T20:20:05.475Z,4.97
2019-05-03T20:22:36.058Z,5.00
2019-05-03T20:25:07.318Z,4.45
2019-05-03T20:27:37.956Z,4.53
2019-05-03T20:30:08.750Z,5.47
2019-05-03T20:32:39.264Z,4.60
2019-05-03T20:35:18.056Z,5.27
2019-05-03T20:37:42.163Z,5.20
2019-05-03T20:40:15.366Z,5.70
2019-05-03T20:43:12.257Z,4.90
2019-05-03T20:46:15.119Z,4.73
2019-05-03T20:48:48.619Z,5.20
2019-05-03T20:51:19.353Z,5.17
2019-05-03T20:53:52.434Z,5.70
2019-05-03T20:56:24.642Z,5.58
2019-05-03T20:58:55.098Z,4.90
2019-05-03T21:01:25.993Z,4.60
2019-05-03T21:03:56.406Z,5.73
2019-05-03T21:06:35.392Z,4.93
2019-05-03T21:08:59.582Z,4.67
2019-05-03T21:11:29.923Z,4.60
2019-05-03T21:14:00.194Z,5.93
2019-05-03T21:16:52.282Z,6.13
2019-05-03T21:19:47.679Z,5.03
2019-05-03T21:22:24.909Z,5.10
2019-05-03T21:25:01.725Z,6.20
2019-05-03T21:27:32.399Z,5.50
2019-05-03T21:30:04.602Z,6.00
2019-05-03T21:32:35.141Z,5.43
2019-05-03T21:35:06.455Z,6.37
2019-05-03T21:37:36.879Z,5.40
2019-05-03T21:40:07.409Z,4.90
2019-05-03T21:42:37.611Z,5.00
2019-05-03T21:45:09.596Z,3.80
2019-05-03T21:48:01.752Z,4.27
2019-05-03T21:50:32.340Z,3.20
2019-05-03T21:53:06.004Z,3.40
2019-05-03T21:55:36.691Z,2.80
2019-05-03T21:58:06.958Z,3.17
2019-05-03T22:00:45.882Z,2.90
2019-05-03T22:03:16.249Z,2.40
2019-05-03T22:05:54.509Z,2.70
2019-05-03T22:08:18.563Z,2.77
2019-05-03T22:10:48.805Z,2.23
2019-05-03T22:13:18.968Z,2.23
2019-05-03T22:15:54.169Z,2.70
2019-05-03T22:18:25.999Z,3.40
2019-05-03T22:21:18.277Z,3.33
2019-05-03T22:24:16.704Z,3.17
2019-05-03T22:27:09.628Z,2.90
2019-05-03T22:29:39.861Z,3.00
2019-05-03T22:32:10.017Z,2.90
2019-05-03T22:34:40.503Z,3.43
2019-05-03T22:37:10.649Z,2.90
2019-05-03T22:39:41.994Z,3.00
2019-05-03T22:42:12.217Z,3.23
2019-05-03T22:44:42.533Z,3.20
2019-05-03T22:47:14.760Z,3.20
2019-05-03T22:49:45.743Z,3.10
2019-05-03T22:52:16.329Z,3.63
2019-05-03T22:54:46.678Z,2.80
2019-05-03T22:57:17.153Z,2.70
2019-05-03T22:59:47.313Z,2.50
2019-05-03T23:02:17.503Z,2.90
2019-05-03T23:04:47.615Z,2.50
2019-05-03T23:07:17.753Z,3.13
2019-05-03T23:09:48.112Z,2.50
2019-05-03T23:12:19.344Z,3.17
2019-05-03T23:14:49.523Z,3.00
2019-05-03T23:17:19.820Z,3.33
2019-05-03T23:19:56.534Z,2.97
2019-05-03T23:22:29.314Z,2.63
2019-05-03T23:25:00.852Z,3.10
2019-05-03T23:27:31.202Z,3.13
2019-05-03T23:30:01.841Z,2.90
2019-05-03T23:32:32.395Z,2.90
2019-05-03T23:35:02.564Z,2.80
2019-05-03T23:37:34.602Z,2.60
2019-05-03T23:40:08.697Z,3.17
2019-05-03T23:42:39.135Z,2.90
2019-05-03T23:45:09.454Z,2.90
2019-05-03T23:47:44.884Z,2.93
2019-05-03T23:50:20.213Z,2.97
2019-05-03T23:52:51.767Z,2.40
2019-05-03T23:55:39.079Z,2.40
2019-05-03T23:58:09.487Z,2.92
